GQPP

Nouadhibou International Airport

Nouadhibou, Mauritania
METAR GQPP 241400Z 34013KT 8000 NSC 27/17 Q1013 NOSIG
Observed Flight Rules
Jun-24 @ 14:00 UTC (an hour ago) Marginal Visual Flight Rules
Wind Visibility Clouds
340° at 13 knots 7,998 meters
  • Clear skies
Temperatures Readings
Current 27°C / 81°F
Dewpoint 17°C / 63°F
Humidity 54%
Altimeter 29.91" Hg
Pressure 1013 hPa
Elevation 3
METAR GQPP 241400Z 34013KT 8000 NSC 27/17 Q1013 NOSIG
Observed Flight Rules
Jun-24 @ 14:00 UTC
(an hour ago)
MVFR
Wind Visibility
340° at 13 knots 7,998 meters
Clouds
  • Clear skies
Temperature Dewpoint
27°C / 81°F 17°C / 63°F
Humidity Altimeter Pressure
54% 29.91" Hg 1013 hPa